Time;durP1;ratioP1;P1;durP2;ratioP2;P2;SDS_P1;SDS_P2;PMS_P1;PMS_P2;Temp;Humidity;BMP_temperature;BMP_pressure;BME280_temperature;BME280_humidity;BME280_pressure;Samples;Min_cycle;Max_cycle;Signal;HPM_P1;HPM_P2
2022/04/16 00:01:05;;;;;;;7.53;5.07;;;;;;;;;;6161573;23;20017;-78
2022/04/16 00:03:33;;;;;;;3.72;3.42;;;;;;;;;;6135576;23;20020;-78
2022/04/16 00:06:02;;;;;;;4.68;3.28;;;;;;;;;;6158101;23;20053;-78
2022/04/16 00:08:31;;;;;;;6.68;3.45;;;;;;;;;;6161975;23;20013;-78
2022/04/16 00:11:00;;;;;;;4.30;3.83;;;;;;;;;;6125825;23;20755;-78
2022/04/16 00:13:29;;;;;;;3.28;2.95;;;;;;;;;;6160213;23;20025;-78
2022/04/16 00:15:57;;;;;;;3.10;2.85;;;;;;;;;;6126257;23;20017;-78
2022/04/16 00:18:26;;;;;;;11.20;3.70;;;;;;;;;;6129521;23;20034;-78
2022/04/16 00:20:54;;;;;;;5.45;3.70;;;;;;;;;;6126328;23;20024;-78
2022/04/16 00:23:22;;;;;;;4.22;3.90;;;;;;;;;;6100458;23;20029;-78
2022/04/16 00:25:50;;;;;;;4.28;3.88;;;;;;;;;;6101315;23;20025;-78
2022/04/16 00:28:19;;;;;;;6.13;3.33;;;;;;;;;;6136046;23;20018;-78
2022/04/16 00:30:47;;;;;;;4.30;3.78;;;;;;;;;;6154880;23;20036;-78
2022/04/16 00:33:15;;;;;;;9.32;4.38;;;;;;;;;;6156278;23;20464;-78
2022/04/16 00:35:43;;;;;;;4.97;4.20;;;;;;;;;;6126346;23;20022;-78
2022/04/16 00:38:11;;;;;;;5.18;3.05;;;;;;;;;;6156150;23;20323;-78
2022/04/16 00:40:39;;;;;;;5.15;3.60;;;;;;;;;;6136023;23;20445;-78
2022/04/16 00:43:08;;;;;;;6.18;3.13;;;;;;;;;;6152824;23;20036;-78
2022/04/16 00:45:37;;;;;;;3.47;2.58;;;;;;;;;;6133419;23;20025;-78
2022/04/16 00:48:07;;;;;;;7.15;5.00;;;;;;;;;;6161963;23;20017;-78
2022/04/16 00:50:35;;;;;;;5.45;3.40;;;;;;;;;;6154171;23;20025;-78
2022/04/16 00:53:03;;;;;;;7.63;4.00;;;;;;;;;;6161199;23;20025;-78
2022/04/16 00:55:33;;;;;;;5.80;4.60;;;;;;;;;;6160152;23;20020;-77
2022/04/16 00:58:01;;;;;;;3.88;3.45;;;;;;;;;;6157279;23;20457;-78
2022/04/16 01:00:29;;;;;;;3.83;3.53;;;;;;;;;;6125761;23;20024;-78
2022/04/16 01:02:57;;;;;;;3.60;3.17;;;;;;;;;;6153449;23;20029;-78
2022/04/16 01:05:25;;;;;;;3.97;3.40;;;;;;;;;;6159892;23;20018;-78
2022/04/16 01:07:54;;;;;;;4.28;3.33;;;;;;;;;;6161349;23;20014;-78
2022/04/16 01:10:27;;;;;;;4.15;3.13;;;;;;;;;;6151272;23;20022;-78
2022/04/16 01:13:13;;;;;;;3.80;3.42;;;;;;;;;;6162221;23;20009;-78
2022/04/16 01:15:41;;;;;;;3.47;3.17;;;;;;;;;;6135184;23;20337;-78
2022/04/16 01:18:10;;;;;;;3.65;3.35;;;;;;;;;;6156660;23;20025;-78
2022/04/16 01:20:38;;;;;;;5.40;3.75;;;;;;;;;;6160243;23;20013;-78
2022/04/16 01:23:07;;;;;;;5.47;4.35;;;;;;;;;;6126044;23;20029;-78
2022/04/16 01:25:36;;;;;;;5.93;2.75;;;;;;;;;;6133082;23;20018;-78
2022/04/16 01:28:04;;;;;;;4.00;3.55;;;;;;;;;;6135619;23;20623;-78
2022/04/16 01:30:33;;;;;;;4.78;3.97;;;;;;;;;;6155142;23;20032;-78
2022/04/16 01:33:03;;;;;;;4.95;3.53;;;;;;;;;;6125416;23;20026;-78
2022/04/16 01:35:32;;;;;;;7.20;4.03;;;;;;;;;;6125379;23;20025;-78
2022/04/16 01:38:04;;;;;;;5.20;3.33;;;;;;;;;;6156061;23;20022;-78
2022/04/16 01:40:32;;;;;;;;;;;;;;;;;;6162274;23;20014;-78
2022/04/16 01:43:02;;;;;;;7.10;3.88;;;;;;;;;;6153422;23;19916;-78
2022/04/16 01:45:33;;;;;;;7.05;4.22;;;;;;;;;;6157110;23;20021;-77
2022/04/16 01:48:02;;;;;;;3.47;3.17;;;;;;;;;;6158453;23;20009;-78
2022/04/16 01:50:31;;;;;;;3.75;3.42;;;;;;;;;;6155387;23;20017;-77
2022/04/16 01:53:01;;;;;;;4.68;4.22;;;;;;;;;;6163160;23;20460;-84
2022/04/16 01:55:30;;;;;;;5.70;4.50;;;;;;;;;;6127553;23;20503;-84
2022/04/16 01:58:01;;;;;;;4.83;4.07;;;;;;;;;;6126287;23;20033;-80
2022/04/16 02:00:29;;;;;;;4.88;4.47;;;;;;;;;;6163825;23;20014;-80
2022/04/16 02:02:57;;;;;;;4.57;3.97;;;;;;;;;;6155372;23;20033;-78
2022/04/16 02:05:25;;;;;;;3.83;3.47;;;;;;;;;;6160227;23;20018;-77
2022/04/16 02:07:54;;;;;;;3.60;3.28;;;;;;;;;;6162780;23;20326;-77
2022/04/16 02:10:22;;;;;;;3.78;3.47;;;;;;;;;;6157561;23;20018;-77
2022/04/16 02:12:50;;;;;;;6.22;4.18;;;;;;;;;;6162185;23;20024;-77
2022/04/16 02:15:18;;;;;;;4.57;4.10;;;;;;;;;;6153967;23;20033;-77
2022/04/16 02:17:46;;;;;;;7.53;4.78;;;;;;;;;;6160075;23;20022;-78
2022/04/16 02:20:14;;;;;;;5.30;3.53;;;;;;;;;;6163588;23;20014;-77
2022/04/16 02:22:42;;;;;;;4.00;3.50;;;;;;;;;;6155978;23;20017;-77
2022/04/16 02:25:11;;;;;;;4.13;3.58;;;;;;;;;;6125943;23;20479;-78
2022/04/16 02:27:39;;;;;;;4.72;3.88;;;;;;;;;;6136848;23;20043;-77
2022/04/16 02:30:08;;;;;;;5.28;3.83;;;;;;;;;;6126650;23;20030;-78
2022/04/16 02:32:43;;;;;;;5.75;3.20;;;;;;;;;;6151551;23;20018;-77
2022/04/16 02:35:13;;;;;;;5.88;3.65;;;;;;;;;;6153721;23;20017;-78
2022/04/16 02:37:42;;;;;;;4.15;3.33;;;;;;;;;;6157331;23;20022;-78
2022/04/16 02:40:10;;;;;;;6.45;3.13;;;;;;;;;;6136505;23;20021;-78
2022/04/16 02:42:39;;;;;;;4.93;3.78;;;;;;;;;;6154409;23;20026;-78
2022/04/16 02:47:55;;;;;;;6.00;4.13;;;;;;;;;;6126837;23;20017;-78
2022/04/16 02:50:25;;;;;;;5.25;4.05;;;;;;;;;;6126159;23;20346;-77
2022/04/16 02:52:54;;;;;;;4.70;4.15;;;;;;;;;;6126315;23;20353;-77
2022/04/16 02:55:22;;;;;;;5.18;3.20;;;;;;;;;;6152788;23;20028;-77
2022/04/16 02:57:50;;;;;;;5.53;5.03;;;;;;;;;;6157540;23;20025;-78
2022/04/16 03:00:20;;;;;;;5.50;3.78;;;;;;;;;;6163260;23;20017;-78
2022/04/16 03:02:49;;;;;;;3.03;2.75;;;;;;;;;;6125667;23;20032;-78
2022/04/16 03:05:18;;;;;;;5.22;3.42;;;;;;;;;;6135076;23;20014;-78
2022/04/16 03:07:46;;;;;;;5.20;3.17;;;;;;;;;;6135687;23;20014;-78
2022/04/16 03:10:15;;;;;;;5.40;3.78;;;;;;;;;;6157116;23;20025;-78
2022/04/16 03:12:44;;;;;;;5.28;4.88;;;;;;;;;;6163062;23;20017;-78
2022/04/16 03:18:00;;;;;;;9.63;3.60;;;;;;;;;;6157990;23;20017;-78
2022/04/16 03:20:50;;;;;;;6.55;4.40;;;;;;;;;;6126241;23;20021;-78
2022/04/16 03:24:16;;;;;;;4.22;3.67;;;;;;;;;;6102873;23;20017;-78
2022/04/16 03:27:43;;;;;;;6.57;4.32;;;;;;;;;;6151052;23;20032;-78
2022/04/16 03:31:00;;;;;;;4.28;3.40;;;;;;;;;;6154664;23;20029;-78
2022/04/16 03:34:04;;;;;;;4.00;3.08;;;;;;;;;;6150707;23;20029;-78
2022/04/16 03:36:57;;;;;;;4.82;3.47;;;;;;;;;;6162739;23;20024;-78
2022/04/16 03:39:25;;;;;;;19.27;4.55;;;;;;;;;;6151084;23;20037;-78
2022/04/16 03:41:54;;;;;;;4.95;3.75;;;;;;;;;;6158742;23;20037;-78
2022/04/16 03:44:22;;;;;;;3.67;3.38;;;;;;;;;;6126532;23;20341;-78
2022/04/16 03:46:50;;;;;;;4.35;3.85;;;;;;;;;;6153168;23;20026;-78
2022/04/16 03:49:18;;;;;;;6.35;5.53;;;;;;;;;;6158345;23;20751;-78
2022/04/16 03:51:46;;;;;;;5.15;4.38;;;;;;;;;;6162598;23;20010;-78
2022/04/16 04:00:00;;;;;;;8.63;3.75;;;;;;;;;;6136813;23;20029;-78
2022/04/16 04:02:33;;;;;;;4.30;3.90;;;;;;;;;;6155976;23;20326;-77
2022/04/16 04:05:02;;;;;;;8.43;4.45;;;;;;;;;;6136102;23;20021;-77
2022/04/16 04:07:30;;;;;;;6.57;3.90;;;;;;;;;;6124704;23;20026;-77
2022/04/16 04:09:59;;;;;;;6.28;3.72;;;;;;;;;;6124461;23;20029;-77
2022/04/16 04:12:27;;;;;;;5.25;4.82;;;;;;;;;;6162473;23;20021;-77
2022/04/16 04:14:55;;;;;;;6.07;4.50;;;;;;;;;;6125284;23;20025;-77
2022/04/16 04:17:23;;;;;;;8.82;5.35;;;;;;;;;;6101191;23;20021;-78
2022/04/16 04:19:51;;;;;;;7.03;5.47;;;;;;;;;;6124823;23;20017;-78
2022/04/16 04:22:20;;;;;;;5.55;4.47;;;;;;;;;;6130261;23;20018;-78
2022/04/16 04:24:48;;;;;;;5.38;3.67;;;;;;;;;;6125261;23;20846;-78
2022/04/16 04:27:16;;;;;;;8.38;4.65;;;;;;;;;;6152480;23;20029;-78
2022/04/16 04:29:44;;;;;;;6.13;4.60;;;;;;;;;;6158851;23;20450;-78
2022/04/16 04:32:12;;;;;;;7.13;5.43;;;;;;;;;;6135016;23;20020;-78
2022/04/16 04:34:40;;;;;;;6.07;5.13;;;;;;;;;;6154360;23;20021;-78
2022/04/16 04:37:08;;;;;;;9.55;6.47;;;;;;;;;;6161292;23;20638;-78
2022/04/16 04:39:36;;;;;;;9.00;6.65;;;;;;;;;;6161108;23;20017;-78
2022/04/16 04:42:05;;;;;;;5.43;4.00;;;;;;;;;;6157471;23;20021;-78
2022/04/16 04:44:33;;;;;;;8.20;5.32;;;;;;;;;;6160369;23;20013;-78
2022/04/16 04:47:01;;;;;;;6.78;5.13;;;;;;;;;;6127226;23;20021;-78
2022/04/16 04:49:29;;;;;;;6.60;4.80;;;;;;;;;;6158799;23;20441;-78
2022/04/16 04:51:57;;;;;;;6.22;5.07;;;;;;;;;;6160632;23;20041;-78
2022/04/16 04:54:25;;;;;;;7.35;4.60;;;;;;;;;;6155223;23;20021;-78
2022/04/16 04:56:53;;;;;;;8.18;5.10;;;;;;;;;;6162074;23;20441;-78
2022/04/16 04:59:21;;;;;;;6.03;5.32;;;;;;;;;;6151991;23;20026;-78
2022/04/16 05:01:48;;;;;;;7.90;5.85;;;;;;;;;;6158547;23;20025;-78
2022/04/16 05:04:17;;;;;;;8.18;5.93;;;;;;;;;;6160207;23;20342;-78
2022/04/16 05:06:44;;;;;;;6.05;3.95;;;;;;;;;;6154430;23;20361;-78
2022/04/16 05:09:12;;;;;;;7.10;4.72;;;;;;;;;;6133465;23;20021;-78
2022/04/16 05:11:40;;;;;;;11.23;5.50;;;;;;;;;;6126078;23;20738;-78
2022/04/16 05:14:08;;;;;;;6.05;4.88;;;;;;;;;;6156999;23;20026;-78
2022/04/16 05:16:36;;;;;;;6.25;5.10;;;;;;;;;;6162162;23;20017;-78
2022/04/16 05:19:04;;;;;;;6.28;5.18;;;;;;;;;;6152680;23;20030;-78
2022/04/16 05:21:33;;;;;;;9.52;4.90;;;;;;;;;;6158122;23;20032;-78
2022/04/16 05:24:01;;;;;;;4.57;3.45;;;;;;;;;;6125175;23;20032;-78
2022/04/16 05:26:29;;;;;;;7.43;5.10;;;;;;;;;;6129726;23;20030;-78
2022/04/16 05:28:57;;;;;;;6.75;5.63;;;;;;;;;;6163835;23;20468;-78
2022/04/16 05:31:27;;;;;;;8.02;5.18;;;;;;;;;;6153814;23;20032;-78
2022/04/16 05:36:43;;;;;;;8.75;5.97;;;;;;;;;;6163799;23;20013;-78
2022/04/16 05:39:11;;;;;;;8.00;5.10;;;;;;;;;;6153051;23;20021;-78
2022/04/16 05:41:39;;;;;;;9.65;5.28;;;;;;;;;;6160900;23;20334;-78
2022/04/16 05:44:07;;;;;;;6.20;5.25;;;;;;;;;;6164045;23;20014;-78
2022/04/16 05:46:35;;;;;;;7.07;6.40;;;;;;;;;;6102792;23;20103;-78
2022/04/16 05:49:03;;;;;;;5.78;5.07;;;;;;;;;;6126764;23;20021;-79
2022/04/16 05:51:31;;;;;;;9.75;5.55;;;;;;;;;;6127089;23;20024;-78
2022/04/16 05:54:01;;;;;;;9.05;6.15;;;;;;;;;;6132390;23;20053;-78
2022/04/16 05:56:30;;;;;;;6.70;5.53;;;;;;;;;;6161433;23;20021;-84
2022/04/16 05:59:00;;;;;;;7.75;4.35;;;;;;;;;;6153413;23;20032;-78
2022/04/16 06:01:28;;;;;;;7.80;5.47;;;;;;;;;;6159718;23;20018;-78
2022/04/16 06:03:56;;;;;;;6.25;5.63;;;;;;;;;;6136936;23;20484;-78
2022/04/16 06:06:24;;;;;;;6.28;5.28;;;;;;;;;;6126754;23;20026;-78
2022/04/16 06:08:52;;;;;;;12.73;10.20;;;;;;;;;;6125984;23;20781;-78
2022/04/16 06:11:21;;;;;;;8.30;6.07;;;;;;;;;;6127582;23;20029;-78
2022/04/16 06:13:49;;;;;;;8.27;6.15;;;;;;;;;;6160105;23;20029;-78
2022/04/16 06:16:17;;;;;;;9.00;5.55;;;;;;;;;;6161754;23;20361;-78
2022/04/16 06:18:45;;;;;;;7.60;5.03;;;;;;;;;;6155363;23;20026;-78
2022/04/16 06:21:13;;;;;;;6.32;5.00;;;;;;;;;;6126567;23;20326;-78
2022/04/16 06:23:41;;;;;;;9.95;6.32;;;;;;;;;;6162698;23;20214;-78
2022/04/16 06:26:09;;;;;;;9.38;8.23;;;;;;;;;;6158486;23;20070;-78
2022/04/16 06:28:37;;;;;;;4.90;4.13;;;;;;;;;;6151838;23;20028;-78
2022/04/16 06:31:05;;;;;;;9.88;7.90;;;;;;;;;;6152613;23;20036;-78
2022/04/16 06:33:33;;;;;;;7.72;5.68;;;;;;;;;;6154635;23;20029;-78
2022/04/16 06:36:01;;;;;;;7.13;6.43;;;;;;;;;;6151866;23;20385;-78
2022/04/16 06:38:31;;;;;;;5.95;4.57;;;;;;;;;;6155290;23;20033;-78
2022/04/16 06:40:59;;;;;;;8.90;5.80;;;;;;;;;;6137084;23;20017;-80
2022/04/16 06:43:27;;;;;;;5.50;4.95;;;;;;;;;;6152448;23;20326;-79
2022/04/16 06:46:01;;;;;;;7.32;5.53;;;;;;;;;;6132446;23;20465;-80
2022/04/16 06:48:31;;;;;;;8.50;4.80;;;;;;;;;;6162961;23;20552;-80
2022/04/16 06:50:59;;;;;;;6.10;4.68;;;;;;;;;;6154597;23;20025;-80
2022/04/16 06:53:27;;;;;;;7.40;5.47;;;;;;;;;;6160019;23;20338;-79
2022/04/16 06:55:55;;;;;;;5.15;4.55;;;;;;;;;;6163009;23;20017;-80
2022/04/16 06:58:23;;;;;;;4.80;4.40;;;;;;;;;;6156443;23;20465;-79
2022/04/16 07:00:51;;;;;;;5.28;4.50;;;;;;;;;;6127274;23;20032;-80
2022/04/16 07:03:20;;;;;;;7.47;4.57;;;;;;;;;;6151763;23;20029;-79
2022/04/16 07:05:48;;;;;;;6.55;5.35;;;;;;;;;;6157171;23;20026;-79
2022/04/16 07:08:16;;;;;;;5.22;4.72;;;;;;;;;;6149270;23;20018;-79
2022/04/16 07:10:44;;;;;;;6.13;5.43;;;;;;;;;;6149714;23;20032;-79
2022/04/16 07:13:12;;;;;;;5.20;4.75;;;;;;;;;;6150839;23;20321;-80
2022/04/16 07:15:40;;;;;;;7.38;5.00;;;;;;;;;;6162833;23;20014;-80
2022/04/16 07:18:08;;;;;;;7.70;5.97;;;;;;;;;;6157309;23;20033;-79
2022/04/16 07:20:36;;;;;;;6.78;4.70;;;;;;;;;;6136096;23;20049;-79
2022/04/16 07:23:05;;;;;;;8.73;5.18;;;;;;;;;;6153330;23;20028;-79
2022/04/16 07:25:34;;;;;;;6.25;4.68;;;;;;;;;;6158023;23;20032;-80
2022/04/16 07:28:02;;;;;;;11.57;5.55;;;;;;;;;;6160180;23;20017;-79
2022/04/16 07:30:30;;;;;;;6.00;5.40;;;;;;;;;;6155100;23;20033;-80
2022/04/16 07:32:58;;;;;;;5.72;4.70;;;;;;;;;;6158637;23;20037;-82
2022/04/16 07:35:29;;;;;;;8.35;6.20;;;;;;;;;;6126431;23;20457;-86
2022/04/16 07:37:57;;;;;;;6.25;5.63;;;;;;;;;;6156390;23;20053;-87
2022/04/16 07:40:26;;;;;;;6.88;4.60;;;;;;;;;;6102687;23;20021;-85
2022/04/16 07:42:54;;;;;;;9.15;5.13;;;;;;;;;;6101993;23;20326;-86
2022/04/16 07:45:22;;;;;;;8.05;6.40;;;;;;;;;;6125764;23;20029;-85
2022/04/16 07:47:52;;;;;;;5.82;4.90;;;;;;;;;;6126460;23;20033;-87
2022/04/16 07:50:21;;;;;;;4.97;4.32;;;;;;;;;;6101718;23;20369;-86
2022/04/16 07:52:51;;;;;;;8.07;5.78;;;;;;;;;;6125767;23;20017;-85
2022/04/16 07:55:20;;;;;;;7.97;5.10;;;;;;;;;;6125826;23;20017;-86
2022/04/16 07:57:48;;;;;;;8.27;4.53;;;;;;;;;;6126491;23;20321;-86
2022/04/16 08:00:22;;;;;;;5.45;4.15;;;;;;;;;;6127793;23;20349;-85
2022/04/16 08:02:50;;;;;;;7.50;4.15;;;;;;;;;;6125804;23;20026;-84
2022/04/16 08:05:18;;;;;;;9.15;6.00;;;;;;;;;;6126009;23;20349;-86
2022/04/16 08:07:46;;;;;;;8.45;5.28;;;;;;;;;;6126458;23;20021;-85
2022/04/16 08:10:14;;;;;;;5.55;4.20;;;;;;;;;;6124546;23;20022;-83
2022/04/16 08:12:42;;;;;;;7.15;4.93;;;;;;;;;;6102173;23;20013;-86
2022/04/16 08:15:10;;;;;;;5.88;4.63;;;;;;;;;;6126476;23;20025;-82
2022/04/16 08:17:40;;;;;;;6.13;4.95;;;;;;;;;;6159799;23;20350;-87
2022/04/16 08:20:19;;;;;;;6.38;5.60;;;;;;;;;;6153805;23;20457;-85
2022/04/16 08:22:52;;;;;;;5.07;4.53;;;;;;;;;;6100886;23;20026;-84
2022/04/16 08:27:55;;;;;;;5.55;5.05;;;;;;;;;;6125924;23;20017;-86
2022/04/16 08:30:23;;;;;;;5.50;4.55;;;;;;;;;;6125723;23;20025;-83
2022/04/16 08:32:52;;;;;;;5.80;4.07;;;;;;;;;;6159280;23;20021;-83
2022/04/16 08:35:20;;;;;;;6.25;3.72;;;;;;;;;;6126111;23;20032;-85
2022/04/16 08:37:49;;;;;;;7.75;5.50;;;;;;;;;;6099655;23;20029;-83
2022/04/16 08:40:18;;;;;;;5.47;4.93;;;;;;;;;;6125677;23;20028;-85
2022/04/16 08:49:21;;;;;;;6.35;4.63;;;;;;;;;;6181236;23;20064;-87
2022/04/16 08:51:49;;;;;;;5.07;4.63;;;;;;;;;;6166044;23;20023;-88
2022/04/16 08:54:18;;;;;;;4.75;4.22;;;;;;;;;;6131273;23;20025;-85
2022/04/16 08:56:46;;;;;;;5.72;4.65;;;;;;;;;;6165230;23;20499;-84
2022/04/16 08:59:14;;;;;;;5.15;4.65;;;;;;;;;;6155851;23;20025;-84
2022/04/16 09:01:42;;;;;;;4.80;4.32;;;;;;;;;;6189259;23;20025;-81
2022/04/16 09:04:23;;;;;;;6.38;4.70;;;;;;;;;;6157153;23;20021;-83
2022/04/16 09:06:51;;;;;;;;;;;;;;;;;;6133374;23;20036;-82
2022/04/16 09:09:20;;;;;;;4.82;4.30;;;;;;;;;;6190135;23;19916;-84
2022/04/16 09:12:02;;;;;;;5.25;4.28;;;;;;;;;;6193989;23;20344;-82
2022/04/16 09:15:23;;;;;;;5.80;5.28;;;;;;;;;;6115231;23;20617;-85
2022/04/16 09:18:33;;;;;;;5.50;4.38;;;;;;;;;;6115024;23;20748;-84
2022/04/16 09:21:47;;;;;;;5.57;4.28;;;;;;;;;;6114805;23;20032;-85
2022/04/16 09:25:47;;;;;;;4.93;4.38;;;;;;;;;;6146164;23;20017;-89
2022/04/16 09:29:21;;;;;;;4.80;3.72;;;;;;;;;;6142876;23;20025;-87
2022/04/16 09:32:30;;;;;;;4.57;3.40;;;;;;;;;;6104373;23;20740;-84
2022/04/16 09:35:42;;;;;;;3.75;3.45;;;;;;;;;;6184243;23;20024;-85
2022/04/16 09:38:17;;;;;;;4.47;3.53;;;;;;;;;;6113427;23;20020;-86
2022/04/16 09:40:46;;;;;;;4.05;3.65;;;;;;;;;;6132477;23;20025;-88
2022/04/16 09:43:15;;;;;;;5.18;3.97;;;;;;;;;;6183559;23;20021;-83
2022/04/16 09:45:43;;;;;;;4.60;3.58;;;;;;;;;;6131100;23;20329;-85
2022/04/16 09:48:12;;;;;;;3.80;3.13;;;;;;;;;;6163791;23;20024;-83
2022/04/16 09:50:41;;;;;;;5.60;3.53;;;;;;;;;;6135447;23;20017;-84
2022/04/16 09:53:10;;;;;;;5.13;4.63;;;;;;;;;;6140868;23;20013;-83
2022/04/16 09:55:40;;;;;;;3.47;3.15;;;;;;;;;;6132988;23;20021;-83
2022/04/16 09:58:09;;;;;;;4.43;3.63;;;;;;;;;;6107680;23;20460;-86
2022/04/16 10:00:38;;;;;;;4.00;3.15;;;;;;;;;;6193745;23;20016;-85
2022/04/16 10:03:27;;;;;;;5.80;4.47;;;;;;;;;;6130979;23;20025;-85
2022/04/16 10:05:58;;;;;;;4.53;3.35;;;;;;;;;;6131708;23;20025;-86
2022/04/16 10:08:27;;;;;;;5.93;4.43;;;;;;;;;;6166002;23;20013;-85
2022/04/16 10:10:57;;;;;;;3.08;2.78;;;;;;;;;;6183353;23;20475;-84
2022/04/16 10:13:30;;;;;;;5.78;4.65;;;;;;;;;;6164636;23;20355;-84
2022/04/16 10:16:01;;;;;;;2.92;2.63;;;;;;;;;;6132663;23;20040;-84
2022/04/16 10:18:32;;;;;;;3.78;3.28;;;;;;;;;;6131699;23;20353;-83
2022/04/16 10:21:04;;;;;;;2.92;2.70;;;;;;;;;;6193454;23;20353;-85
2022/04/16 10:23:37;;;;;;;3.40;2.72;;;;;;;;;;6091062;23;20097;-86
2022/04/16 10:26:10;;;;;;;5.00;3.53;;;;;;;;;;6071935;23;20054;-84
2022/04/16 10:28:42;;;;;;;3.53;3.15;;;;;;;;;;6121719;23;20014;-85
2022/04/16 10:31:23;;;;;;;4.25;3.90;;;;;;;;;;6097174;23;20025;-85
2022/04/16 10:33:51;;;;;;;;;;;;;;;;;;6122208;23;20033;-83
2022/04/16 10:36:24;;;;;;;3.92;3.55;;;;;;;;;;6106642;23;19928;-84
2022/04/16 10:38:52;;;;;;;2.60;2.38;;;;;;;;;;6070070;23;20030;-84
2022/04/16 10:41:26;;;;;;;3.15;2.85;;;;;;;;;;6081017;23;20026;-84
2022/04/16 10:43:59;;;;;;;3.72;3.08;;;;;;;;;;6072237;23;20018;-84
2022/04/16 10:46:54;;;;;;;3.30;3.00;;;;;;;;;;6100085;23;20026;-83
2022/04/16 10:49:27;;;;;;;4.82;4.15;;;;;;;;;;6114425;23;20481;-81
2022/04/16 10:51:56;;;;;;;3.55;3.05;;;;;;;;;;6072299;23;20018;-82
2022/04/16 10:54:32;;;;;;;3.85;3.42;;;;;;;;;;6101526;23;20022;-83
2022/04/16 10:57:01;;;;;;;4.72;4.32;;;;;;;;;;6078536;23;20037;-81
2022/04/16 10:59:58;;;;;;;5.32;4.90;;;;;;;;;;6126244;23;20021;-81
2022/04/16 11:02:46;;;;;;;3.92;3.63;;;;;;;;;;6099284;23;20025;-82
2022/04/16 11:05:15;;;;;;;3.78;3.25;;;;;;;;;;6111058;23;20009;-83
2022/04/16 11:07:43;;;;;;;3.65;3.35;;;;;;;;;;6126232;23;20022;-82
2022/04/16 11:10:12;;;;;;;6.15;4.90;;;;;;;;;;6077663;23;20029;-84
2022/04/16 11:12:41;;;;;;;4.45;3.83;;;;;;;;;;6137261;23;20017;-83
2022/04/16 11:15:14;;;;;;;5.80;5.00;;;;;;;;;;6153819;23;20029;-83
2022/04/16 11:17:42;;;;;;;5.72;5.22;;;;;;;;;;6101495;23;20017;-84
2022/04/16 11:20:10;;;;;;;4.47;4.07;;;;;;;;;;6078580;23;20454;-83
2022/04/16 11:22:39;;;;;;;5.32;4.82;;;;;;;;;;6129176;23;20021;-84
2022/04/16 11:25:08;;;;;;;4.88;4.00;;;;;;;;;;6161641;23;20009;-83
2022/04/16 11:36:12;;;;;;;3.92;3.33;;;;;;;;;;6136825;23;20017;-83
2022/04/16 11:38:41;;;;;;;6.20;4.50;;;;;;;;;;6128923;23;20457;-81
2022/04/16 11:41:13;;;;;;;5.30;4.38;;;;;;;;;;6161863;23;20018;-82
2022/04/16 11:43:50;;;;;;;7.15;6.00;;;;;;;;;;6112198;23;20017;-81
2022/04/16 11:46:18;;;;;;;6.32;5.43;;;;;;;;;;6156940;23;20013;-80
2022/04/16 11:48:48;;;;;;;6.63;5.88;;;;;;;;;;6172048;23;20014;-82
2022/04/16 11:51:16;;;;;;;14.48;7.18;;;;;;;;;;6182838;23;20028;-82
2022/04/16 11:53:51;;;;;;;15.30;8.45;;;;;;;;;;6130650;23;20028;-84
2022/04/16 11:56:23;;;;;;;10.30;7.70;;;;;;;;;;6131971;23;20024;-82
2022/04/16 11:58:50;;;;;;;;;;;;;;;;;;6131019;23;20029;-80
2022/04/16 12:01:22;;;;;;;8.07;5.78;;;;;;;;;;6189301;23;19920;-81
2022/04/16 12:03:52;;;;;;;;;;;;;;;;;;6141433;23;20021;-83
2022/04/16 12:06:20;;;;;;;5.22;4.63;;;;;;;;;;6130752;23;19916;-85
2022/04/16 12:08:51;;;;;;;8.60;7.30;;;;;;;;;;6129163;23;20024;-82
2022/04/16 12:11:20;;;;;;;7.95;6.25;;;;;;;;;;6182250;23;20032;-83
2022/04/16 12:13:54;;;;;;;9.77;8.80;;;;;;;;;;6154746;23;20028;-83
2022/04/16 12:16:22;;;;;;;7.65;6.57;;;;;;;;;;6191691;23;20009;-85
2022/04/16 12:18:50;;;;;;;6.20;5.60;;;;;;;;;;6154092;23;20814;-83
2022/04/16 12:21:19;;;;;;;7.93;6.50;;;;;;;;;;6139671;23;20017;-82
2022/04/16 12:23:47;;;;;;;6.88;5.35;;;;;;;;;;6191321;23;20009;-82
2022/04/16 12:26:16;;;;;;;7.60;5.63;;;;;;;;;;6186732;23;20021;-83
2022/04/16 12:28:51;;;;;;;6.70;5.05;;;;;;;;;;6192010;23;20017;-83
2022/04/16 12:31:26;;;;;;;10.23;5.80;;;;;;;;;;6143451;23;20029;-81
2022/04/16 12:33:55;;;;;;;6.75;5.90;;;;;;;;;;6187419;23;20024;-84
2022/04/16 12:36:23;;;;;;;6.35;5.60;;;;;;;;;;6155343;23;20016;-82
2022/04/16 12:38:51;;;;;;;7.47;5.82;;;;;;;;;;6156440;23;20017;-81
2022/04/16 12:41:23;;;;;;;9.35;5.65;;;;;;;;;;6154700;23;20013;-84
2022/04/16 12:43:51;;;;;;;8.18;6.10;;;;;;;;;;6192117;23;20017;-83
2022/04/16 12:46:19;;;;;;;8.15;5.82;;;;;;;;;;6154865;23;20453;-83
2022/04/16 12:48:47;;;;;;;6.00;4.47;;;;;;;;;;6159883;23;20013;-83
2022/04/16 12:51:15;;;;;;;8.82;6.18;;;;;;;;;;6182282;23;20035;-82
2022/04/16 12:53:43;;;;;;;8.50;4.80;;;;;;;;;;6162010;23;20470;-83
2022/04/16 12:56:11;;;;;;;4.35;3.95;;;;;;;;;;6192183;23;20020;-83
2022/04/16 12:58:39;;;;;;;8.57;5.93;;;;;;;;;;6156966;23;20024;-83
2022/04/16 13:01:10;;;;;;;5.88;4.25;;;;;;;;;;6191101;23;20017;-83
2022/04/16 13:03:39;;;;;;;3.13;2.92;;;;;;;;;;6130730;23;20017;-80
2022/04/16 13:06:07;;;;;;;6.65;5.72;;;;;;;;;;6186818;23;20337;-81
2022/04/16 13:08:35;;;;;;;6.32;4.43;;;;;;;;;;6190869;23;20029;-83
2022/04/16 13:11:06;;;;;;;5.35;4.43;;;;;;;;;;6155712;23;20646;-81
2022/04/16 13:13:39;;;;;;;4.53;4.10;;;;;;;;;;6188792;23;20032;-83
2022/04/16 13:16:07;;;;;;;4.60;3.75;;;;;;;;;;6165959;23;20020;-80
2022/04/16 13:18:36;;;;;;;6.18;5.40;;;;;;;;;;6154243;23;20356;-80
2022/04/16 13:21:06;;;;;;;4.03;3.63;;;;;;;;;;6191333;23;20017;-81
2022/04/16 13:23:34;;;;;;;6.30;4.05;;;;;;;;;;6154395;23;20021;-84
2022/04/16 13:26:02;;;;;;;4.80;4.32;;;;;;;;;;6154854;23;20017;-81
2022/04/16 13:28:30;;;;;;;4.15;3.75;;;;;;;;;;6139800;23;20016;-81
2022/04/16 13:30:58;;;;;;;6.28;4.63;;;;;;;;;;6153962;23;20044;-82
2022/04/16 13:33:27;;;;;;;6.28;4.65;;;;;;;;;;6105371;23;20029;-81
2022/04/16 13:35:55;;;;;;;8.32;6.32;;;;;;;;;;6191357;23;20063;-81
2022/04/16 13:38:25;;;;;;;7.28;4.30;;;;;;;;;;6133740;23;20040;-87
2022/04/16 13:43:43;;;;;;;5.18;4.68;;;;;;;;;;6164151;23;20025;-82
2022/04/16 13:46:18;;;;;;;4.18;3.75;;;;;;;;;;6186109;23;20028;-81
2022/04/16 13:48:46;;;;;;;7.93;5.75;;;;;;;;;;6187495;23;20025;-82
2022/04/16 13:51:14;;;;;;;26.23;6.93;;;;;;;;;;6157471;23;20029;-80
2022/04/16 13:53:42;;;;;;;5.10;3.22;;;;;;;;;;6189292;23;20021;-83
2022/04/16 13:56:10;;;;;;;5.22;4.80;;;;;;;;;;6193663;23;20024;-83
2022/04/16 13:58:38;;;;;;;5.00;4.60;;;;;;;;;;6185924;23;20029;-82
2022/04/16 14:01:06;;;;;;;5.05;3.38;;;;;;;;;;6131772;23;20021;-81
2022/04/16 14:03:36;;;;;;;4.15;3.78;;;;;;;;;;6193014;23;20025;-83
2022/04/16 14:06:04;;;;;;;7.20;5.22;;;;;;;;;;6188414;23;20445;-82
2022/04/16 14:08:32;;;;;;;6.20;4.72;;;;;;;;;;6165615;23;20024;-83
2022/04/16 14:11:00;;;;;;;4.47;3.45;;;;;;;;;;6157969;23;20017;-81
2022/04/16 14:13:32;;;;;;;3.85;2.88;;;;;;;;;;6164769;23;20017;-83
2022/04/16 14:16:01;;;;;;;4.82;4.43;;;;;;;;;;6193529;23;20020;-84
2022/04/16 14:18:29;;;;;;;6.13;3.85;;;;;;;;;;6159846;23;20017;-83
2022/04/16 14:20:58;;;;;;;3.47;3.17;;;;;;;;;;6156763;23;20016;-84
2022/04/16 14:23:30;;;;;;;2.80;2.60;;;;;;;;;;6181570;23;20476;-83
2022/04/16 14:25:58;;;;;;;3.30;2.97;;;;;;;;;;6156122;23;20037;-89
2022/04/16 14:28:27;;;;;;;6.35;2.45;;;;;;;;;;6166703;23;20013;-83
2022/04/16 14:30:55;;;;;;;3.65;3.25;;;;;;;;;;6158468;23;20021;-80
2022/04/16 14:33:23;;;;;;;6.80;3.50;;;;;;;;;;6140201;23;20028;-83
2022/04/16 14:35:51;;;;;;;2.35;2.08;;;;;;;;;;6130981;23;20021;-81
2022/04/16 14:38:24;;;;;;;3.03;2.70;;;;;;;;;;6130915;23;20040;-83
2022/04/16 14:40:54;;;;;;;4.90;3.83;;;;;;;;;;6140390;23;20024;-82
2022/04/16 14:43:22;;;;;;;6.10;4.50;;;;;;;;;;6157703;23;20043;-82
2022/04/16 14:45:50;;;;;;;3.40;2.67;;;;;;;;;;6189319;23;20017;-84
2022/04/16 14:48:18;;;;;;;4.68;2.50;;;;;;;;;;6122520;23;20032;-84
2022/04/16 14:50:46;;;;;;;2.42;2.33;;;;;;;;;;6124407;23;20029;-82
2022/04/16 14:53:14;;;;;;;3.42;2.70;;;;;;;;;;6134456;23;20021;-82
2022/04/16 14:55:42;;;;;;;5.70;4.00;;;;;;;;;;6137005;23;20014;-80
2022/04/16 14:58:11;;;;;;;3.22;2.92;;;;;;;;;;6131122;23;20021;-83
2022/04/16 15:00:40;;;;;;;4.70;4.00;;;;;;;;;;6102253;23;20018;-83
2022/04/16 15:03:08;;;;;;;3.72;3.42;;;;;;;;;;6152092;23;20024;-83
2022/04/16 15:05:37;;;;;;;2.92;2.60;;;;;;;;;;6125217;23;20453;-82
2022/04/16 15:08:05;;;;;;;3.30;2.92;;;;;;;;;;6162054;23;20020;-83
2022/04/16 15:10:34;;;;;;;3.72;3.28;;;;;;;;;;6154552;23;20032;-84
2022/04/16 15:13:02;;;;;;;2.97;2.70;;;;;;;;;;6163043;23;20025;-83
2022/04/16 15:15:30;;;;;;;6.68;3.20;;;;;;;;;;6126120;23;20028;-83
2022/04/16 15:17:59;;;;;;;4.82;4.00;;;;;;;;;;6123388;23;20028;-85
2022/04/16 15:20:28;;;;;;;3.30;3.00;;;;;;;;;;6136325;23;20023;-87
2022/04/16 15:22:56;;;;;;;4.22;3.83;;;;;;;;;;6127882;23;20473;-86
2022/04/16 15:25:36;;;;;;;4.80;2.90;;;;;;;;;;6134703;23;20024;-85
2022/04/16 15:28:04;;;;;;;3.75;3.40;;;;;;;;;;6162131;23;20044;-82
2022/04/16 15:30:32;;;;;;;3.90;3.45;;;;;;;;;;6155470;23;20338;-85
2022/04/16 15:33:03;;;;;;;4.30;3.85;;;;;;;;;;6124699;23;20037;-86
2022/04/16 15:35:34;;;;;;;5.88;3.63;;;;;;;;;;6126859;23;20331;-86
2022/04/16 15:38:02;;;;;;;10.27;5.03;;;;;;;;;;6125629;23;20018;-88
2022/04/16 15:40:31;;;;;;;3.88;3.58;;;;;;;;;;6160154;23;20021;-84